Главная страница
METAR-TAF:

METAR-TAF

Аэропорты :

Риека, Хорватия

широта: 45-13N, долгота: 014-35E, высота над уровнем моря: 85 м

Текущие метеонаблюдения

Эта сводка был подготовлена 27 минут назад, в 22:30 UTC
Ветер 3 Узел переменных направлений
Температура 15°C
Влажность 94%
Давление 1018 hPa
Видимость 10 км и более
небольшая облачность на высоте 2700 фута

METAR: LDRI 252230Z VRB03KT 9999 FEW027 15/14 Q1018

Время: 00:57 (22:57 UTC)

Прогноз

Эта сводка был подготовлена 5 часа и 32 минут назад, в 17:25 UTC
Прогноз действительный с 25-го 18 UTC до 26-го 18 UTC
Ветер 8 Узел от южный-юго-западный
Видимость 10 км и более
небольшая облачность на высоте 2500 фута
Вероятность 30% :
временами
С 26-го 12 UTC до 26-го 18 UTC
Видимость: 4000 м
Отдельные облака на высоте 2000 фута, Кучево-дождевые.
гроза, дождь

TAF: LDRI 251725Z 2518/2618 20008KT 9999 FEW025 TX20/2610Z TN14/2617Z PROB30 TEMPO 2612/2618 4000 TSRA SCT020CB

Метеонаблюдения и прогнозы для более 4000 аэропортов (сводки METAR и TAF).

Имеющиеся станции представлены на карте желтыми и красными точками.

Чтобы увидеть название станции, наведите на нее мышь.

Затем щелкните, чтобы увидеть метеонаблюдения и метеопрогнозы.

Управление картой: чтобы увеличить масштаб, щелкните зеленые кнопки с черным крестиком; чтобы уменьшить масштаб, щелкните зеленую кнопку с тире; для просмотра соседних карт щелкайте зеленые стрелки.


METAR-TAF: